Time;durP1;ratioP1;P1;durP2;ratioP2;P2;SDS_P1;SDS_P2;PMS_P1;PMS_P2;Temp;Humidity;BMP_temperature;BMP_pressure;BME280_temperature;BME280_humidity;BME280_pressure;Samples;Min_cycle;Max_cycle;Signal;HPM_P1;HPM_P2
2021/09/17 00:01:27;;;;;;;6.42;5.60;;;;;;;22.76;64.68;99619.42;2224754;87;25862;-82
2021/09/17 00:04:54;;;;;;;6.05;5.60;;;;;;;22.79;64.66;99626.41;2217645;88;25838;-78
2021/09/17 00:08:15;;;;;;;9.20;5.62;;;;;;;22.81;64.65;99617.91;2222613;88;25755;-83
2021/09/17 00:11:37;;;;;;;7.55;5.83;;;;;;;22.86;64.63;99617.27;2215534;87;25237;-86
2021/09/17 00:15:09;;;;;;;8.75;7.75;;;;;;;22.86;64.58;99615.48;2221165;88;26157;-76
2021/09/17 00:18:30;;;;;;;7.95;6.05;;;;;;;22.86;64.56;99614.62;2223358;88;26058;-88
2021/09/17 00:21:59;;;;;;;6.20;5.80;;;;;;;22.87;64.59;99611.03;2216367;87;25517;-82
2021/09/17 00:25:25;;;;;;;;;;;;;;;22.87;64.52;99598.59;2192923;88;25833;-75
2021/09/17 00:28:51;;;;;;;9.75;8.70;;;;;;;22.86;64.49;99604.85;2192399;88;25777;-75
2021/09/17 00:32:14;;;;;;;8.50;7.70;;;;;;;22.81;64.36;99609.93;2157207;90;26223;-83
2021/09/17 00:35:35;;;;;;;9.18;8.33;;;;;;;22.79;64.40;99602.50;2173696;89;25872;-83
2021/09/17 00:38:56;;;;;;;8.43;7.78;;;;;;;22.73;64.36;99607.58;2196546;89;25719;-77
2021/09/17 00:42:24;;;;;;;9.58;8.68;;;;;;;22.70;64.41;99597.53;2192855;88;25850;-89
2021/09/17 00:45:56;;;;;;;10.45;8.73;;;;;;;22.65;64.45;99608.81;2170014;90;25709;-87
2021/09/17 00:49:22;;;;;;;10.82;9.83;;;;;;;22.62;64.42;99603.16;2166045;89;25403;-89
2021/09/17 00:52:50;;;;;;;10.50;9.65;;;;;;;22.52;64.29;99598.64;2218779;88;25712;-87
2021/09/17 00:56:11;;;;;;;9.58;8.60;;;;;;;22.47;64.42;99601.92;2222142;88;25655;-79
2021/09/17 00:59:32;;;;;;;9.60;8.70;;;;;;;22.46;64.46;99598.88;2190733;88;25765;-87
2021/09/17 01:02:59;;;;;;;9.53;8.73;;;;;;;22.46;64.51;99594.02;2190808;88;25862;-75
2021/09/17 01:06:26;;;;;;;7.50;6.78;;;;;;;22.48;64.59;99589.07;2172081;89;26668;-74
2021/09/17 01:10:09;;;;;;;6.87;6.22;;;;;;;22.50;64.60;99580.56;2180736;89;25862;-88
2021/09/17 01:13:38;;;;;;;7.00;6.50;;;;;;;22.51;64.60;99580.98;2185642;89;25716;-82
2021/09/17 01:17:00;;;;;;;11.03;6.75;;;;;;;22.58;64.60;99575.84;2149991;90;25327;-90
2021/09/17 01:20:30;;;;;;;6.05;5.45;;;;;;;22.61;64.55;99578.81;2168501;89;25845;-85
2021/09/17 01:23:51;;;;;;;6.45;5.95;;;;;;;22.62;64.56;99573.93;2262764;86;26307;-83
2021/09/17 01:27:14;;;;;;;7.28;6.67;;;;;;;22.62;64.55;99577.45;2273022;86;25804;-79
2021/09/17 01:30:51;;;;;;;8.95;7.20;;;;;;;22.61;64.48;99573.06;2243056;86;26609;-75
2021/09/17 01:34:22;;;;;;;9.53;7.55;;;;;;;22.53;64.21;99569.82;2267812;86;25616;-81
2021/09/17 01:37:55;;;;;;;6.95;6.35;;;;;;;22.40;64.13;99576.52;2269176;86;25978;-75
2021/09/17 01:41:16;;;;;;;8.28;7.50;;;;;;;22.38;64.40;99574.41;2277187;83;26440;-83
2021/09/17 01:44:39;;;;;;;8.55;7.78;;;;;;;22.29;64.27;99570.76;2333756;83;25705;-85
2021/09/17 01:48:02;;;;;;;8.00;7.37;;;;;;;22.25;64.26;99570.02;2338723;83;26121;-76
2021/09/17 01:51:37;;;;;;;7.05;6.45;;;;;;;22.25;64.28;99571.34;2352831;83;25693;-86
2021/09/17 01:55:11;;;;;;;7.12;6.42;;;;;;;22.21;64.37;99564.42;2344674;83;25685;-75
2021/09/17 01:58:41;;;;;;;7.12;6.53;;;;;;;22.24;64.45;99562.98;2324467;83;25687;-87
2021/09/17 02:02:05;;;;;;;6.35;5.72;;;;;;;22.25;64.41;99562.05;2344112;83;25673;-82
2021/09/17 02:05:49;;;;;;;7.00;6.45;;;;;;;22.24;64.40;99563.41;2327260;83;26112;-75
2021/09/17 02:09:10;;;;;;;6.35;5.75;;;;;;;22.24;64.34;99565.63;2333205;83;25757;-87
2021/09/17 02:13:00;;;;;;;6.72;6.22;;;;;;;22.16;64.28;99564.56;2328220;81;25658;-80
2021/09/17 02:16:07;;;;;;;7.97;5.92;;;;;;;22.07;64.21;99566.22;2211213;87;25813;-75
2021/09/17 02:19:28;;;;;;;6.78;6.22;;;;;;;22.05;64.30;99554.78;2227984;87;25431;-84
2021/09/17 02:23:10;;;;;;;6.75;6.15;;;;;;;22.01;64.11;99554.96;2219743;86;26112;-77
2021/09/17 02:26:43;;;;;;;5.42;4.85;;;;;;;21.94;64.23;99550.34;2259484;85;25887;-88
2021/09/17 02:30:14;;;;;;;5.37;4.87;;;;;;;21.98;64.38;99548.44;2168367;87;26095;-91
2021/09/17 02:33:38;;;;;;;6.40;5.80;;;;;;;22.01;64.37;99545.67;2172920;87;25720;-77
2021/09/17 02:37:05;;;;;;;6.03;5.33;;;;;;;21.93;64.09;99538.83;2175328;89;26129;-82
2021/09/17 02:40:27;;;;;;;5.47;5.08;;;;;;;21.93;64.27;99529.55;2173553;88;26286;-85
2021/09/17 02:43:48;;;;;;;5.20;4.50;;;;;;;21.99;64.35;99535.56;2160131;89;26026;-87
2021/09/17 02:47:33;;;;;;;5.62;5.03;;;;;;;21.98;64.20;99529.39;2175672;89;26182;-76
2021/09/17 02:51:07;;;;;;;5.83;5.33;;;;;;;21.98;64.12;99524.55;2167364;88;25649;-76
2021/09/17 02:54:34;;;;;;;8.23;6.03;;;;;;;21.94;64.12;99526.45;2178736;87;25720;-82
2021/09/17 02:58:06;;;;;;;4.95;4.55;;;;;;;21.92;64.07;99529.15;2196184;87;25737;-76
2021/09/17 03:01:30;;;;;;;4.53;4.22;;;;;;;21.90;64.14;99523.05;2194560;87;25675;-79
2021/09/17 03:05:10;;;;;;;10.53;5.58;;;;;;;21.92;64.21;99525.63;2193194;87;26112;-76
2021/09/17 03:08:31;;;;;;;6.10;5.50;;;;;;;21.87;64.00;99534.23;2194437;87;26412;-88
2021/09/17 03:12:13;;;;;;;5.42;4.70;;;;;;;21.78;63.87;99528.79;2224898;85;26151;-92
2021/09/17 03:16:02;;;;;;;9.35;5.42;;;;;;;21.73;64.00;99525.42;2275746;84;25253;-76
2021/09/17 03:19:24;;;;;;;5.08;4.53;;;;;;;21.69;63.90;99527.31;2292847;84;25776;-76
2021/09/17 03:22:45;;;;;;;5.28;4.78;;;;;;;21.66;63.89;99519.47;2289057;84;25725;-76
2021/09/17 03:26:18;;;;;;;5.05;3.95;;;;;;;21.67;63.95;99510.61;2321619;82;25683;-75
2021/09/17 03:29:40;;;;;;;6.92;5.17;;;;;;;21.69;63.94;99510.54;2367092;83;25859;-88
2021/09/17 03:33:01;;;;;;;5.20;4.80;;;;;;;21.60;63.66;99513.08;2366804;83;25701;-75
2021/09/17 03:36:23;;;;;;;5.17;4.60;;;;;;;21.52;63.83;99517.77;2359548;83;25603;-76
2021/09/17 03:39:44;;;;;;;7.47;4.15;;;;;;;21.51;63.83;99521.81;2361794;83;25750;-77
2021/09/17 03:43:07;;;;;;;4.55;4.15;;;;;;;21.55;64.03;99516.80;2365912;83;25669;-76
2021/09/17 03:46:29;;;;;;;5.95;4.45;;;;;;;21.61;64.01;99516.59;2361855;83;26062;-80
2021/09/17 03:49:50;;;;;;;12.98;4.33;;;;;;;21.64;64.01;99512.50;2363696;83;25650;-76
2021/09/17 03:53:11;;;;;;;3.77;3.47;;;;;;;21.62;63.86;99519.64;2366702;82;25681;-77
2021/09/17 03:56:35;;;;;;;5.40;3.58;;;;;;;21.60;63.90;99520.14;2344895;83;25712;-82
2021/09/17 03:59:56;;;;;;;6.22;3.75;;;;;;;21.62;63.89;99522.29;2365115;83;25661;-75
2021/09/17 04:03:17;;;;;;;4.55;4.15;;;;;;;21.61;63.81;99509.49;2362782;83;25709;-76
2021/09/17 04:06:42;;;;;;;5.87;3.60;;;;;;;21.59;63.64;99519.75;2365637;83;25625;-76
2021/09/17 04:10:03;;;;;;;5.42;3.20;;;;;;;21.55;63.69;99520.31;2366044;83;25769;-75
2021/09/17 04:13:24;;;;;;;5.62;3.12;;;;;;;21.56;63.65;99512.75;2367610;83;25651;-79
2021/09/17 04:16:45;;;;;;;6.55;3.52;;;;;;;21.55;63.65;99515.48;2363318;83;25605;-74
2021/09/17 04:20:08;;;;;;;5.00;3.60;;;;;;;21.54;63.58;99509.31;2365880;83;25769;-74
2021/09/17 04:23:29;;;;;;;4.10;3.70;;;;;;;21.55;63.44;99512.83;2340684;82;25714;-85
2021/09/17 04:26:50;;;;;;;4.65;3.27;;;;;;;21.54;63.50;99511.10;2361602;83;25598;-75
2021/09/17 04:30:14;;;;;;;6.53;4.03;;;;;;;21.50;63.34;99505.47;2364887;82;25675;-74
2021/09/17 04:33:35;;;;;;;3.35;2.87;;;;;;;21.47;63.23;99513.10;2368231;83;25603;-77
2021/09/17 04:36:56;;;;;;;3.72;3.42;;;;;;;21.45;63.28;99516.25;2369540;83;25661;-73
2021/09/17 04:40:17;;;;;;;4.58;3.70;;;;;;;21.40;63.07;99511.59;2365023;83;25676;-74
2021/09/17 04:43:38;;;;;;;4.22;3.83;;;;;;;21.34;63.22;99519.71;2365796;83;25615;-74
2021/09/17 04:46:59;;;;;;;8.88;3.62;;;;;;;21.37;63.28;99517.85;2367083;83;25654;-74
2021/09/17 04:50:22;;;;;;;3.33;3.10;;;;;;;21.31;63.13;99522.00;2366200;83;25821;-73
2021/09/17 04:53:43;;;;;;;2.70;2.50;;;;;;;21.31;63.37;99519.34;2366325;82;25476;-76
2021/09/17 04:57:05;;;;;;;5.15;4.42;;;;;;;21.40;63.46;99525.70;2365251;83;25703;-75
2021/09/17 05:00:26;;;;;;;5.87;3.20;;;;;;;21.45;63.29;99515.78;2367561;83;25759;-75
2021/09/17 05:03:50;;;;;;;3.58;2.80;;;;;;;21.48;63.25;99524.10;2367593;83;25610;-75
2021/09/17 05:07:19;;;;;;;3.40;3.10;;;;;;;21.44;63.23;99526.00;2359473;82;26101;-75
2021/09/17 05:10:42;;;;;;;7.10;3.12;;;;;;;21.48;62.98;99527.22;2359958;83;25689;-79
2021/09/17 05:14:03;;;;;;;6.80;3.02;;;;;;;21.41;62.75;99524.77;2362661;82;25425;-84
2021/09/17 05:17:30;;;;;;;7.28;2.77;;;;;;;21.42;62.82;99526.96;2373899;82;26012;-78
2021/09/17 05:20:51;;;;;;;2.95;2.17;;;;;;;21.41;62.84;99534.05;2369151;82;25750;-76
2021/09/17 05:24:12;;;;;;;2.58;2.35;;;;;;;21.47;62.79;99533.45;2378946;80;25795;-83
2021/09/17 05:27:33;;;;;;;4.83;1.87;;;;;;;21.48;62.63;99538.69;2398612;82;25312;-74
2021/09/17 05:31:06;;;;;;;4.47;2.20;;;;;;;21.45;62.44;99537.00;2387618;81;26397;-75
2021/09/17 05:34:27;;;;;;;3.02;2.10;;;;;;;21.43;62.45;99529.58;2246899;84;25784;-75
2021/09/17 05:37:48;;;;;;;2.75;2.20;;;;;;;21.50;62.46;99534.64;2281615;86;25792;-77
2021/09/17 05:41:09;;;;;;;1.85;1.75;;;;;;;21.51;62.12;99535.08;2275639;86;25678;-80
2021/09/17 05:44:30;;;;;;;4.47;1.32;;;;;;;21.38;61.74;99534.16;2266190;84;25822;-89
2021/09/17 05:47:51;;;;;;;4.35;1.72;;;;;;;21.25;61.54;99536.78;2265504;84;25861;-84
2021/09/17 05:51:12;;;;;;;2.45;2.02;;;;;;;21.13;61.32;99534.56;2284331;86;25358;-79
2021/09/17 05:54:37;;;;;;;2.02;1.60;;;;;;;20.96;61.33;99539.09;2265204;84;25762;-87
2021/09/17 05:57:59;;;;;;;2.50;2.10;;;;;;;20.80;61.34;99534.73;2258461;84;25751;-74
2021/09/17 06:01:23;;;;;;;6.42;1.80;;;;;;;20.63;61.42;99529.96;2268159;84;25926;-75
2021/09/17 06:04:54;;;;;;;5.50;2.20;;;;;;;20.53;61.51;99536.45;2264364;84;26152;-86
2021/09/17 06:12:24;;;;;;;4.62;2.00;;;;;;;20.37;61.46;99534.69;2360626;81;25771;-74
2021/09/17 06:15:48;;;;;;;2.77;2.02;;;;;;;20.30;61.57;99529.17;2387305;82;25654;-74
2021/09/17 06:19:11;;;;;;;7.35;2.60;;;;;;;20.23;61.70;99533.77;2366353;82;25717;-89
2021/09/17 06:22:33;;;;;;;5.80;2.02;;;;;;;20.16;61.82;99537.98;2371876;81;25806;-72
2021/09/17 06:26:00;;;;;;;4.50;1.92;;;;;;;20.09;61.92;99534.64;2387138;81;25624;-77
2021/09/17 06:29:38;;;;;;;5.87;2.45;;;;;;;20.11;61.98;99537.23;2382894;82;25697;-74
2021/09/17 06:33:05;;;;;;;3.20;1.47;;;;;;;20.10;62.11;99535.05;2363501;82;25694;-73
2021/09/17 06:36:26;;;;;;;8.03;1.87;;;;;;;20.26;62.58;99538.13;2377047;81;26431;-73
2021/09/17 06:39:47;;;;;;;3.77;1.60;;;;;;;20.44;62.67;99532.72;2377490;82;25294;-77
2021/09/17 06:43:11;;;;;;;4.03;1.55;;;;;;;20.60;62.70;99534.48;2388215;82;25684;-74
2021/09/17 06:46:32;;;;;;;10.70;2.60;;;;;;;20.73;62.67;99534.52;2372861;82;25874;-82
2021/09/17 06:49:53;;;;;;;7.45;1.87;;;;;;;20.85;62.64;99530.13;2385138;81;25952;-84
2021/09/17 06:53:15;;;;;;;3.85;1.35;;;;;;;20.95;62.42;99537.33;2362954;81;25611;-83
2021/09/17 06:56:36;;;;;;;3.42;1.65;;;;;;;21.04;62.47;99531.74;2368294;81;26120;-89
2021/09/17 06:59:57;;;;;;;4.90;3.30;;;;;;;21.14;62.26;99533.63;2380180;81;25723;-89
2021/09/17 07:03:18;;;;;;;4.50;2.10;;;;;;;21.19;62.21;99536.55;2381713;81;26040;-88
2021/09/17 07:06:39;;;;;;;3.85;1.87;;;;;;;21.29;62.11;99530.91;2393229;81;25215;-89
2021/09/17 07:10:00;;;;;;;5.22;1.87;;;;;;;21.37;62.05;99532.44;2376175;81;25709;-88
2021/09/17 07:13:27;;;;;;;2.55;2.12;;;;;;;21.50;62.14;99526.69;2373525;81;25927;-74
2021/09/17 07:16:48;;;;;;;4.45;2.40;;;;;;;21.61;61.64;99525.88;2379113;81;25785;-87
2021/09/17 07:20:39;;;;;;;6.67;2.92;;;;;;;21.57;60.90;99529.09;2370505;81;26076;-74
2021/09/17 07:28:04;;;;;;;3.87;2.60;;;;;;;21.31;59.68;99519.34;2222589;87;25834;-74
2021/09/17 07:31:27;;;;;;;4.00;2.92;;;;;;;21.26;58.24;99524.39;2244848;86;25638;-75
2021/09/17 07:34:49;;;;;;;8.65;4.33;;;;;;;21.03;59.12;99530.02;2243583;86;25677;-74
2021/09/17 07:38:13;;;;;;;7.58;4.60;;;;;;;20.95;58.91;99520.97;2234594;86;25787;-74
2021/09/17 07:41:37;;;;;;;3.75;3.45;;;;;;;20.98;58.97;99525.31;2244868;87;25909;-82
2021/09/17 07:44:59;;;;;;;9.08;3.92;;;;;;;20.98;58.81;99530.15;2241778;85;26419;-74
2021/09/17 07:48:20;;;;;;;4.78;3.65;;;;;;;21.01;58.85;99523.89;2243676;86;25863;-75
2021/09/17 07:51:42;;;;;;;4.55;3.52;;;;;;;21.04;58.84;99524.25;2234135;87;26088;-74
2021/09/17 07:55:08;;;;;;;9.03;3.92;;;;;;;21.04;58.75;99524.25;2238724;86;26432;-72
2021/09/17 07:58:32;;;;;;;5.92;4.30;;;;;;;20.90;58.46;99520.27;2246065;87;25789;-73
2021/09/17 08:01:52;;;;;;;10.03;4.37;;;;;;;20.93;58.70;99516.66;2241715;86;25542;-77
2021/09/17 08:05:14;;;;;;;6.47;4.10;;;;;;;20.99;58.57;99516.44;2326866;81;25736;-72
2021/09/17 08:08:39;;;;;;;4.40;3.70;;;;;;;21.07;58.48;99521.05;2390262;81;25704;-73
2021/09/17 08:12:01;;;;;;;6.65;3.47;;;;;;;21.02;58.22;99520.31;2381272;81;26314;-74
2021/09/17 08:15:22;;;;;;;7.95;4.65;;;;;;;20.91;58.42;99512.72;2374692;81;25795;-73
2021/09/17 08:18:45;;;;;;;4.92;3.85;;;;;;;20.81;58.31;99511.29;2380483;81;25677;-76
2021/09/17 08:22:06;;;;;;;5.17;4.22;;;;;;;20.84;58.58;99512.52;2371480;81;26202;-82
2021/09/17 08:25:39;;;;;;;4.80;4.22;;;;;;;20.90;58.56;99515.44;2402261;81;25704;-74
2021/09/17 08:29:08;;;;;;;4.45;4.05;;;;;;;20.84;58.51;99509.00;2369564;81;25774;-72
2021/09/17 08:32:38;;;;;;;5.95;5.17;;;;;;;20.90;58.76;99510.13;2389156;80;25825;-88
2021/09/17 08:36:01;;;;;;;6.28;4.87;;;;;;;20.84;58.48;99512.98;2364305;82;30426;-72
2021/09/17 08:39:23;;;;;;;10.13;7.10;;;;;;;20.70;58.66;99514.28;2346571;83;25661;-72
2021/09/17 08:42:45;;;;;;;15.38;7.35;;;;;;;20.64;58.84;99513.14;2307317;83;25605;-73
2021/09/17 08:46:15;;;;;;;8.10;7.33;;;;;;;20.63;58.78;99510.56;2366304;80;26022;-71
2021/09/17 08:49:38;;;;;;;10.28;8.88;;;;;;;20.57;58.94;99511.61;2383809;80;25639;-72
2021/09/17 08:52:59;;;;;;;10.00;9.15;;;;;;;20.56;59.06;99510.34;2402220;81;25696;-80
2021/09/17 08:56:28;;;;;;;15.28;8.70;;;;;;;20.56;59.15;99507.23;2394314;80;25823;-72
2021/09/17 08:59:49;;;;;;;11.33;10.23;;;;;;;20.55;59.11;99509.92;2392550;82;25655;-71
2021/09/17 09:03:13;;;;;;;14.43;11.68;;;;;;;20.49;59.24;99517.58;2403648;81;25686;-72
2021/09/17 09:06:39;;;;;;;16.73;12.25;;;;;;;20.50;59.19;99517.55;2369227;82;25597;-71
2021/09/17 09:10:13;;;;;;;13.75;11.95;;;;;;;20.43;59.24;99515.11;2400243;80;25685;-77
2021/09/17 09:13:34;;;;;;;13.00;11.75;;;;;;;20.40;59.39;99508.59;2366915;81;25865;-71
2021/09/17 09:16:56;;;;;;;12.68;11.50;;;;;;;20.42;59.51;99513.39;2377269;81;25706;-81
2021/09/17 09:20:32;;;;;;;13.85;12.65;;;;;;;20.41;59.56;99514.28;2299086;85;25737;-71
2021/09/17 09:24:12;;;;;;;13.10;11.75;;;;;;;20.55;59.68;99516.53;2278205;84;25726;-71
2021/09/17 09:27:33;;;;;;;12.93;10.90;;;;;;;20.74;59.69;99512.41;2284766;84;25722;-74
2021/09/17 09:30:59;;;;;;;15.18;13.60;;;;;;;20.95;59.46;99513.48;2302287;85;25670;-70
2021/09/17 09:34:53;;;;;;;14.78;13.62;;;;;;;20.99;58.62;99510.70;2314439;85;25687;-70
2021/09/17 09:38:43;;;;;;;15.45;13.98;;;;;;;20.63;58.88;99510.09;2374160;81;25866;-72
2021/09/17 09:42:12;;;;;;;15.78;13.08;;;;;;;20.73;59.22;99499.63;2332554;82;25685;-75
2021/09/17 09:45:33;;;;;;;12.30;10.68;;;;;;;20.84;59.19;99509.86;2336813;83;25716;-72
2021/09/17 09:49:22;;;;;;;14.03;12.53;;;;;;;20.88;59.51;99515.47;2330218;83;25811;-75
2021/09/17 09:52:43;;;;;;;;;;;;;;;21.08;59.74;99511.30;2330989;83;26091;-83
2021/09/17 09:56:09;;;;;;;17.73;14.35;;;;;;;21.34;60.55;99513.08;2331665;82;25885;-80
2021/09/17 09:59:37;;;;;;;15.88;14.30;;;;;;;21.47;59.86;99521.52;2315161;82;26076;-75
2021/09/17 10:03:26;;;;;;;16.17;14.57;;;;;;;21.54;59.39;99515.08;2291170;84;25687;-75
2021/09/17 10:07:04;;;;;;;15.65;14.25;;;;;;;21.59;58.92;99509.13;2293894;84;25630;-76
2021/09/17 10:10:32;;;;;;;20.87;15.97;;;;;;;21.60;58.76;99518.38;2300531;83;26173;-75
2021/09/17 10:14:00;;;;;;;15.80;14.33;;;;;;;21.60;58.10;99508.20;2331001;83;25725;-78
2021/09/17 10:17:32;;;;;;;15.72;14.13;;;;;;;21.58;58.54;99513.58;2333901;83;25864;-80
2021/09/17 10:20:54;;;;;;;15.18;11.90;;;;;;;21.64;58.48;99511.18;2342494;82;25616;-81
2021/09/17 10:24:30;;;;;;;16.50;13.35;;;;;;;21.75;59.10;99505.48;2336250;83;25413;-81
2021/09/17 10:28:26;;;;;;;14.05;12.70;;;;;;;21.87;58.36;99509.03;2322764;83;25929;-74
2021/09/17 10:31:50;;;;;;;13.98;12.55;;;;;;;21.68;58.27;99503.05;2316231;82;25974;-74
2021/09/17 10:35:44;;;;;;;12.50;11.55;;;;;;;21.92;58.94;99502.61;2310500;83;25625;-81
2021/09/17 10:39:18;;;;;;;12.80;11.68;;;;;;;22.14;57.98;99503.16;2263702;84;25763;-75
2021/09/17 10:43:29;;;;;;;12.47;11.38;;;;;;;22.31;57.95;99502.55;2283984;84;25729;-74
2021/09/17 10:46:56;;;;;;;12.07;11.20;;;;;;;22.51;57.68;99498.64;2230358;86;25806;-75
2021/09/17 10:50:19;;;;;;;11.97;10.60;;;;;;;22.79;57.55;99505.51;2222252;87;26240;-81
2021/09/17 10:54:22;;;;;;;11.30;10.50;;;;;;;22.92;57.42;99501.42;2224193;87;26344;-79
2021/09/17 11:02:42;;;;;;;10.93;9.90;;;;;;;23.17;57.46;99503.09;2171632;87;25991;-84
2021/09/17 11:06:31;;;;;;;10.25;8.80;;;;;;;23.51;56.16;99502.50;2210621;87;26083;-75
2021/09/17 11:10:06;;;;;;;;;;;;;;;23.63;55.49;99490.47;2193340;87;25782;-74
2021/09/17 11:13:28;;;;;;;8.15;7.60;;;;;;;23.67;55.01;99493.39;2186576;87;26287;-74
2021/09/17 11:16:55;;;;;;;6.10;5.65;;;;;;;23.62;56.08;99488.72;2198571;86;26489;-74
2021/09/17 11:20:34;;;;;;;7.03;6.42;;;;;;;23.81;55.54;99493.66;2295014;84;25826;-75
2021/09/17 11:23:57;;;;;;;7.92;6.03;;;;;;;23.89;55.46;99489.31;2340842;81;25795;-83
2021/09/17 11:27:44;;;;;;;7.58;5.65;;;;;;;23.85;54.17;99492.59;2358236;81;26204;-74
2021/09/17 11:35:22;;;;;;;5.20;4.80;;;;;;;23.55;54.55;99476.16;2323214;82;25769;-74
2021/09/17 11:38:51;;;;;;;5.08;4.62;;;;;;;23.62;54.48;99474.95;2322773;82;27153;-74
2021/09/17 11:42:18;;;;;;;6.12;4.20;;;;;;;23.63;54.45;99473.18;2337294;82;26155;-81
2021/09/17 11:45:42;;;;;;;6.28;3.85;;;;;;;23.68;54.33;99472.05;2346564;82;25613;-75
2021/09/17 11:49:08;;;;;;;10.32;3.92;;;;;;;23.69;54.20;99476.47;2347037;81;25891;-74
2021/09/17 11:52:53;;;;;;;3.30;3.00;;;;;;;23.74;53.98;99478.91;2325543;83;25426;-78
2021/09/17 11:56:17;;;;;;;3.45;2.70;;;;;;;23.78;53.65;99478.69;2314519;82;25812;-84
2021/09/17 12:00:10;;;;;;;3.17;2.85;;;;;;;23.73;52.82;99475.39;2312904;83;26012;-75
2021/09/17 12:03:54;;;;;;;9.80;2.35;;;;;;;23.68;52.98;99465.88;2316890;82;26264;-76
2021/09/17 12:07:36;;;;;;;3.12;2.50;;;;;;;23.97;52.62;99470.74;2313967;82;26138;-74
2021/09/17 12:11:03;;;;;;;3.08;2.30;;;;;;;24.30;51.69;99473.22;2305203;83;25710;-75
2021/09/17 12:14:24;;;;;;;3.20;2.90;;;;;;;24.40;51.06;99466.52;2300368;82;25784;-80
2021/09/17 12:22:54;;;;;;;3.02;2.08;;;;;;;24.45;50.59;99465.41;2269891;84;26362;-75
2021/09/17 12:26:24;;;;;;;3.85;2.00;;;;;;;24.47;50.32;99463.54;2277125;85;25853;-74
2021/09/17 12:30:30;;;;;;;2.65;2.45;;;;;;;24.47;50.16;99462.20;2274444;84;25895;-79
2021/09/17 12:33:49;;;;;;;6.00;2.58;;;;;;;24.56;50.02;99463.55;2274037;83;26307;-76
2021/09/17 12:37:30;;;;;;;3.87;3.45;;;;;;;24.57;50.00;99469.73;2279441;83;26194;-75
2021/09/17 12:41:16;;;;;;;4.05;2.42;;;;;;;24.60;49.64;99466.92;2241931;85;26136;-75
2021/09/17 12:45:08;;;;;;;2.85;2.65;;;;;;;24.59;49.67;99466.06;2248463;85;26161;-77
2021/09/17 12:48:52;;;;;;;4.72;2.70;;;;;;;24.55;49.42;99455.16;2259852;85;25648;-74
2021/09/17 12:52:13;;;;;;;6.85;3.55;;;;;;;24.53;49.49;99445.52;2248584;85;25960;-76
2021/09/17 12:56:13;;;;;;;4.45;2.45;;;;;;;24.52;49.35;99449.98;2262984;84;25860;-78
2021/09/17 13:00:20;;;;;;;;;;;;;;;;;;;;;
2021/09/17 13:03:39;;;;;;;4.20;2.87;;;;;;;24.49;49.34;99441.66;2327908;82;25889;-78
2021/09/17 13:07:00;;;;;;;2.37;2.17;;;;;;;24.48;49.52;99442.61;2346930;82;26035;-82
2021/09/17 13:10:21;;;;;;;4.60;2.30;;;;;;;24.46;49.30;99451.13;2296826;83;25949;-82
2021/09/17 13:13:43;;;;;;;3.22;2.85;;;;;;;24.51;49.26;99444.27;2315515;83;25819;-83
2021/09/17 13:17:04;;;;;;;2.33;2.12;;;;;;;24.52;49.21;99445.98;2336122;83;25796;-84
2021/09/17 13:20:29;;;;;;;4.72;2.62;;;;;;;24.48;49.24;99444.42;2328902;83;26043;-79
2021/09/17 13:23:50;;;;;;;6.37;2.95;;;;;;;24.49;49.34;99447.47;2325641;82;25715;-83
2021/09/17 13:27:13;;;;;;;4.97;2.60;;;;;;;24.44;49.55;99446.84;2290191;83;26354;-82
2021/09/17 13:30:40;;;;;;;3.22;2.80;;;;;;;24.45;49.52;99456.08;2215294;86;25416;-82
2021/09/17 13:34:02;;;;;;;6.15;2.52;;;;;;;24.41;49.49;99452.31;2255266;85;26131;-81
2021/09/17 13:37:31;;;;;;;2.90;2.70;;;;;;;24.36;49.41;99456.95;2259245;85;26314;-81
2021/09/17 13:40:53;;;;;;;3.30;2.52;;;;;;;24.30;49.54;99451.91;2245516;85;26432;-80
2021/09/17 13:44:17;;;;;;;3.42;3.02;;;;;;;24.22;49.58;99453.14;2267507;86;25829;-82
2021/09/17 13:47:39;;;;;;;4.20;2.10;;;;;;;24.08;49.71;99451.60;2270313;85;25505;-79
2021/09/17 13:55:05;;;;;;;3.25;3.00;;;;;;;23.74;50.47;99438.99;2257256;84;26549;-77
2021/09/17 13:58:51;;;;;;;7.35;3.08;;;;;;;23.65;50.74;99434.04;2261891;84;25961;-84
2021/09/17 14:02:16;;;;;;;7.50;2.65;;;;;;;23.57;50.94;99440.58;2262054;84;25764;-77
2021/09/17 14:06:05;;;;;;;5.08;2.47;;;;;;;23.56;51.06;99435.34;2267093;84;25812;-83
2021/09/17 14:09:58;;;;;;;3.00;2.60;;;;;;;23.50;51.00;99435.14;2258650;84;26074;-80
2021/09/17 14:13:21;;;;;;;2.85;2.47;;;;;;;23.44;50.90;99435.88;2241939;86;25788;-83
2021/09/17 14:16:42;;;;;;;7.75;3.20;;;;;;;23.40;51.05;99434.28;2238315;86;26324;-81
2021/09/17 14:20:19;;;;;;;5.58;2.37;;;;;;;23.32;51.10;99436.82;2226252;86;25696;-83
2021/09/17 14:23:46;;;;;;;2.92;2.62;;;;;;;23.26;52.76;99432.23;2215388;85;26252;-83
2021/09/17 14:27:11;;;;;;;3.58;2.00;;;;;;;23.33;53.64;99431.03;2213416;85;26128;-79
2021/09/17 14:30:47;;;;;;;2.75;2.00;;;;;;;23.41;53.25;99433.34;2095645;90;26007;-77
2021/09/17 14:34:19;;;;;;;4.22;2.42;;;;;;;23.34;53.17;99430.95;2115178;90;26131;-79
2021/09/17 14:37:46;;;;;;;6.97;6.30;;;;;;;23.29;53.33;99425.45;2094914;90;25965;-77
2021/09/17 14:41:21;;;;;;;3.52;3.12;;;;;;;23.33;53.85;99427.05;2128542;91;26211;-77
2021/09/17 14:45:00;;;;;;;2.85;2.62;;;;;;;23.37;53.73;99428.63;2025435;94;26190;-81
2021/09/17 14:48:24;;;;;;;2.85;2.35;;;;;;;23.41;53.54;99424.90;2053687;91;26326;-81
2021/09/17 14:51:49;;;;;;;2.35;1.70;;;;;;;23.50;53.43;99431.62;2158736;89;26510;-82
2021/09/17 14:55:28;;;;;;;2.98;2.15;;;;;;;23.54;53.35;99427.88;2212260;87;25740;-76
2021/09/17 14:58:58;;;;;;;4.50;2.27;;;;;;;23.56;52.90;99422.90;2188697;88;25708;-81
2021/09/17 15:02:26;;;;;;;1.92;1.82;;;;;;;23.60;52.70;99425.42;2204590;88;25787;-77
2021/09/17 15:06:13;;;;;;;5.08;1.82;;;;;;;23.64;52.72;99420.34;2203003;87;25696;-76
2021/09/17 15:09:34;;;;;;;2.10;1.95;;;;;;;23.63;53.25;99418.16;2276420;83;26219;-81
2021/09/17 15:13:04;;;;;;;10.18;2.62;;;;;;;23.58;52.57;99414.36;2326405;81;25912;-75
2021/09/17 15:16:26;;;;;;;4.60;1.45;;;;;;;23.68;52.78;99415.31;2315654;83;25993;-77
2021/09/17 15:20:00;;;;;;;11.90;1.70;;;;;;;23.83;53.15;99415.95;2307699;83;25912;-75
2021/09/17 15:23:21;;;;;;;7.37;1.60;;;;;;;23.98;52.99;99414.36;2318174;83;25664;-76
2021/09/17 15:26:43;;;;;;;1.72;1.62;;;;;;;23.96;52.44;99422.88;2331997;83;26101;-76
2021/09/17 15:30:32;;;;;;;2.25;1.57;;;;;;;24.01;52.12;99422.20;2312392;83;26028;-79
2021/09/17 15:34:05;;;;;;;2.83;1.90;;;;;;;24.00;51.79;99420.02;2304486;83;25526;-78
2021/09/17 15:37:26;;;;;;;6.42;2.30;;;;;;;23.92;51.90;99424.82;2317234;83;25976;-78
2021/09/17 15:41:10;;;;;;;2.25;1.77;;;;;;;23.73;52.08;99422.16;2320077;83;26398;-78
2021/09/17 15:48:30;;;;;;;4.30;2.05;;;;;;;23.51;52.67;99426.69;2221874;86;25823;-82
2021/09/17 15:52:10;;;;;;;2.62;2.35;;;;;;;23.38;52.85;99419.70;2204881;86;25985;-82
2021/09/17 15:55:34;;;;;;;4.87;2.60;;;;;;;23.27;53.25;99427.31;2203776;86;26218;-80
2021/09/17 15:59:03;;;;;;;4.55;2.40;;;;;;;23.26;53.22;99422.93;2210030;86;43485;-81
2021/09/17 16:02:46;;;;;;;2.15;2.00;;;;;;;23.17;53.39;99428.64;2236045;86;25794;-79
2021/09/17 16:06:14;;;;;;;8.83;3.20;;;;;;;23.10;53.34;99430.70;2238734;86;25791;-81
2021/09/17 16:09:59;;;;;;;3.98;2.00;;;;;;;22.99;53.47;99432.49;2198498;86;25828;-78
2021/09/17 16:13:46;;;;;;;3.02;1.80;;;;;;;22.92;53.66;99441.62;2204781;86;25970;-82
2021/09/17 16:17:46;;;;;;;4.50;1.80;;;;;;;22.81;53.95;99446.50;2207587;86;26022;-79
2021/09/17 16:21:52;;;;;;;3.52;1.75;;;;;;;22.73;54.02;99439.33;2215647;86;26287;-83
2021/09/17 16:25:15;;;;;;;1.95;1.50;;;;;;;22.69;54.12;99437.27;2186500;88;25645;-82
2021/09/17 16:29:09;;;;;;;4.08;2.72;;;;;;;22.62;54.69;99443.29;2187937;87;26283;-82
2021/09/17 16:32:49;;;;;;;2.42;1.77;;;;;;;22.62;54.65;99444.61;2199225;86;26709;-79
2021/09/17 16:36:11;;;;;;;2.17;1.50;;;;;;;22.55;55.10;99444.47;2177915;88;25996;-78
2021/09/17 16:39:32;;;;;;;2.58;1.70;;;;;;;22.57;54.94;99443.06;2165782;89;26555;-77
2021/09/17 16:43:11;;;;;;;3.37;1.85;;;;;;;22.45;54.87;99439.13;2174986;88;26138;-80
2021/09/17 16:47:11;;;;;;;2.45;1.90;;;;;;;22.35;55.14;99434.64;2191885;88;26093;-78
2021/09/17 16:50:29;;;;;;;1.60;1.50;;;;;;;22.32;55.56;99432.11;2143588;89;26509;-78
2021/09/17 16:54:02;;;;;;;2.55;1.90;;;;;;;22.33;55.73;99429.84;2131548;90;25862;-81